Thunder radar more information blitzortung!


Radar de pluja more information rain snow radar


Visita la nostra xarxa de llocs de meteo:

Template documentation
and downloads

And another site



Wind From: 11-12-2017 11:00 Until: 14:59 warning for: Wind Level: Yellow info button

Pagina Historial Weather Underground text

Diari Resum May 24, 2017 Unitats:  Imperial    Mètric   Tant
« Previous Dia
SegĂźent Dia »
Diari Setmana Mensual Anual Personalitzada
  Maxima: Minima: Media:
Temperatura: 90.1 °F 59.7 °F 79 °F
Punt de rosada: 59.4 °F 42.4 °F 49.6 °F
Humitat: 70 % 26 % 38 %
Wind Speed: 15 mph 0 mph 5.3 mph
RĂ fegues de vent: 15 mph - -
Vent:- - SSW
Pression baro: 30.2 in 30 in -
Precipitacions: 0 in    
Historical Graphs
 
 
Dades de taula per May 24, 2017
Temps Temperatura Punt de rosada Pression baro Vent Wind Speed RĂ fegues de vent Humitat Rainfall Rate (Hourly)
00:02 66.2 °F 51.4 °F 30.1 in SW 2.3 mph 2.3 mph 59 % 0 in
00:05 61.9 °F 52 °F 30.1 in Calm     70 % 0 in
00:07 65.8 °F 51.6 °F 30.1 in SW 2.3 mph 2.3 mph 60 % 0 in
00:12 65.8 °F 51.6 °F 30.1 in WSW 2.3 mph 2.3 mph 60 % 0 in
00:15 61.9 °F 52 °F 30.1 in Calm     70 % 0 in
00:25 62.1 °F 52.2 °F 30.1 in Calm   1 mph 70 % 0 in
00:35 61.9 °F 52 °F 30.1 in Calm     70 % 0 in
00:45 62.1 °F 51.8 °F 30.1 in North 1 mph 2 mph 69 % 0 in
00:55 61.7 °F 51.4 °F 30.1 in Calm     69 % 0 in
01:05 61.5 °F 51.3 °F 30.1 in Calm     69 % 0 in
01:15 61 °F 50.7 °F 30.2 in Calm   2 mph 69 % 0 in
01:25 60.3 °F 50 °F 30.2 in SSW 1 mph 1 mph 69 % 0 in
01:35 60.1 °F 49.8 °F 30.2 in SW 1 mph 2 mph 69 % 0 in
01:45 59.7 °F 49.5 °F 30.2 in SW 2 mph 3 mph 69 % 0 in
01:55 59.7 °F 49.5 °F 30.2 in SW 2 mph 3 mph 69 % 0 in
02:05 60.1 °F 49.8 °F 30.2 in Calm   2 mph 69 % 0 in
02:15 60.8 °F 50.5 °F 30.2 in WSW 1 mph 2 mph 69 % 0 in
02:25 61.5 °F 51.3 °F 30.2 in Calm   2 mph 69 % 0 in
02:35 63.3 °F 52.5 °F 30.2 in Calm     68 % 0 in
02:45 64.4 °F 52.9 °F 30.2 in Calm     66 % 0 in
02:55 64.2 °F 52.2 °F 30.2 in West 1 mph 2 mph 65 % 0 in
03:05 64.6 °F 52.2 °F 30.2 in SW 1 mph 2 mph 64 % 0 in
03:15 65.3 °F 52.9 °F 30.2 in SW 1 mph 2 mph 64 % 0 in
03:25 66.2 °F 52.9 °F 30.2 in SW 2 mph 2 mph 62 % 0 in
03:35 66.7 °F 53.2 °F 30.2 in SW 1 mph 2 mph 62 % 0 in
03:45 67.5 °F 54 °F 30.2 in SW 1 mph 2 mph 62 % 0 in
03:55 68 °F 53.6 °F 30.2 in SW 1 mph 2 mph 60 % 0 in
04:05 69.8 °F 54.9 °F 30.2 in SSW 1 mph 3 mph 59 % 0 in
04:15 71.1 °F 55.6 °F 30.2 in NE 1 mph 2 mph 58 % 0 in
04:25 72 °F 55.9 °F 30.2 in Calm   4 mph 57 % 0 in
04:35 72.7 °F 56.1 °F 30.2 in Calm   2 mph 56 % 0 in
04:45 73.6 °F 56.5 °F 30.2 in ENE 2 mph 3 mph 55 % 0 in
04:55 74.3 °F 56.1 °F 30.2 in East 1 mph 3 mph 53 % 0 in
05:05 74.8 °F 55.9 °F 30.2 in ESE 1 mph 2 mph 52 % 0 in
05:15 76.6 °F 57.7 °F 30.2 in East 1 mph 2 mph 52 % 0 in
05:25 77 °F 56.8 °F 30.2 in ENE 2 mph 3 mph 50 % 0 in
05:35 77.9 °F 57.7 °F 30.2 in East 1 mph 3 mph 50 % 0 in
05:45 79 °F 58.3 °F 30.2 in East 1 mph 2 mph 49 % 0 in
10:52 79 °F 57.6 °F 30.2 in ENE 3.5 mph 3.5 mph 48 % 0 in
10:57 79.5 °F 58.1 °F 30.2 in SE 2.4 mph 2.4 mph 48 % 0 in
11:02 80.4 °F 58.8 °F 30.2 in SW 2.3 mph 2.3 mph 48 % 0 in
11:07 81 °F 58.3 °F 30.2 in South 3.5 mph 3.5 mph 46 % 0 in
11:12 82.2 °F 59.4 °F 30.2 in WSW 3.5 mph 3.5 mph 46 % 0 in
11:17 82.8 °F 59.4 °F 30.2 in ESE 2.3 mph 2.3 mph 45 % 0 in
11:22 83.1 °F 58.8 °F 30.1 in ESE 2.3 mph 2.3 mph 44 % 0 in
11:27 82.6 °F 58.5 °F 30.1 in West 2.3 mph 2.3 mph 44 % 0 in
11:32 82 °F 57.4 °F 30.1 in WSW 4.6 mph 4.6 mph 43 % 0 in
11:37 82.8 °F 57.4 °F 30.1 in ENE 2.3 mph 2.3 mph 42 % 0 in
11:42 82.8 °F 57.4 °F 30.1 in SW 3.5 mph 3.5 mph 42 % 0 in
11:47 84.4 °F 58.1 °F 30.1 in SSW 3.5 mph 3.5 mph 41 % 0 in
11:52 84.9 °F 56.5 °F 30.1 in NE 5.8 mph 5.8 mph 38 % 0 in
11:57 83.7 °F 56.1 °F 30.1 in South 2.4 mph 2.4 mph 39 % 0 in
12:02 84.9 °F 56.5 °F 30.1 in ENE 2.3 mph   38 % 0 in
12:07 85.1 °F 56.7 °F 30.1 in West 2.3 mph 2.3 mph 38 % 0 in
12:12 85.1 °F 55 °F 30.1 in ENE 3.5 mph 3.5 mph 36 % 0 in
12:17 85.8 °F 57.4 °F 30.1 in ESE 2.3 mph 2.3 mph 38 % 0 in
12:22 86.2 °F 57.6 °F 30.1 in West 4.6 mph 4.6 mph 38 % 0 in
12:27 86.2 °F 56.8 °F 30.1 in WSW 5.8 mph 5.8 mph 37 % 0 in
12:32 86.4 °F 56.3 °F 30.1 in SSW 3.5 mph 3.5 mph 36 % 0 in
12:37 88 °F 57.7 °F 30.1 in SW 4.6 mph 4.6 mph 36 % 0 in
12:42 88 °F 57.7 °F 30.1 in SW 2.6 mph 2.6 mph 36 % 0 in
12:47 88.5 °F 57.4 °F 30.1 in SW 4.6 mph 4.6 mph 35 % 0 in
12:52 87.8 °F 55.9 °F 30.1 in West 4.6 mph 4.6 mph 34 % 0 in
12:57 88.5 °F 56.7 °F 30.1 in South 3.5 mph 3.5 mph 34 % 0 in
13:02 88.3 °F 55.6 °F 30.1 in South 4.6 mph 4.6 mph 33 % 0 in
13:07 89.1 °F 56.1 °F 30.1 in NE 2.3 mph 2.3 mph 33 % 0 in
13:12 87.6 °F 55 °F 30.1 in SSE 3.3 mph 3.3 mph 33 % 0 in
13:17 87.8 °F 54.3 °F 30.1 in SSE 3.5 mph 3.5 mph 32 % 0 in
13:22 88.5 °F 55.8 °F 30.1 in WSW 4.6 mph 4.6 mph 33 % 0 in
13:27 88.2 °F 54.7 °F 30.1 in West 6.9 mph 6.9 mph 32 % 0 in
13:32 86.5 °F 53.2 °F 30.1 in ESE 5.8 mph 5.8 mph 32 % 0 in
13:37 86.7 °F 53.2 °F 30.1 in NE 2.9 mph 2.9 mph 32 % 0 in
13:38 86.5 °F 53.2 °F 30.1 in ENE 2.4 mph 2.4 mph 32 % 0 in
13:43 87.6 °F 54.1 °F 30.1 in SW 3.5 mph 3.5 mph 32 % 0 in
13:48 88 °F 53.6 °F 30.1 in SSE 2.3 mph 2.3 mph 31 % 0 in
13:53 88.2 °F 54.7 °F 30.1 in SSE 3.5 mph 3.5 mph 32 % 0 in
13:58 88.7 °F 54.1 °F 30.1 in SSW 4.6 mph 4.6 mph 31 % 0 in
14:03 89.1 °F 53.6 °F 30.1 in SSE 2.3 mph 2.3 mph 30 % 0 in
14:08 88.2 °F 52.9 °F 30.1 in SSW 4.6 mph 4.6 mph 30 % 0 in
14:13 88.9 °F 54.3 °F 30.1 in SW 5.8 mph 5.8 mph 31 % 0 in
14:18 89.2 °F 54.7 °F 30.1 in North 4.6 mph 4.6 mph 31 % 0 in
14:23 90.1 °F 54.5 °F 30.1 in West 3.8 mph 3.8 mph 30 % 0 in
14:28 89.6 °F 54.1 °F 30.1 in West 10.4 mph 10.4 mph 30 % 0 in
14:33 89.6 °F 53.1 °F 30.1 in SSW 9.2 mph 9.2 mph 29 % 0 in
14:38 89.6 °F 53.1 °F 30.1 in South 10.5 mph 10.5 mph 29 % 0 in
14:43 89.8 °F 53.2 °F 30.1 in South 8.1 mph 8.1 mph 29 % 0 in
14:48 89.2 °F 52.9 °F 30.1 in SW 5.8 mph 5.8 mph 29 % 0 in
14:53 88.3 °F 51.1 °F 30.1 in SW 11.5 mph 11.5 mph 28 % 0 in
14:58 88.2 °F 50.9 °F 30.1 in SSW 9.2 mph 9.2 mph 28 % 0 in
15:03 88.7 °F 51.4 °F 30.1 in WSW 8.1 mph 8.1 mph 28 % 0 in
15:08 88.2 °F 50.9 °F 30.1 in SSW 5.8 mph 5.8 mph 28 % 0 in
15:13 87.1 °F 48.9 °F 30.1 in South 12.1 mph 12.1 mph 27 % 0 in
15:18 86.9 °F 48.9 °F 30.1 in SW 12.7 mph 12.7 mph 27 % 0 in
15:23 86.9 °F 48.9 °F 30 in SW 8.1 mph 8.1 mph 27 % 0 in
15:28 86.2 °F 48.4 °F 30 in SW 15 mph 15 mph 27 % 0 in
15:33 86.5 °F 48.6 °F 30 in South 10.4 mph 10.4 mph 27 % 0 in
15:38 86 °F 47.1 °F 30.1 in WSW 12.7 mph 12.7 mph 26 % 0 in
15:43 86 °F 48 °F 30.1 in South 12.7 mph 12.7 mph 27 % 0 in
15:48 86.2 °F 48.4 °F 30.1 in SW 12.7 mph 12.7 mph 27 % 0 in
15:53 86.4 °F 48.4 °F 30 in SSW 10.4 mph 10.4 mph 27 % 0 in
15:58 87.1 °F 48.9 °F 30 in SSW 3.6 mph 3.6 mph 27 % 0 in
16:03 87.1 °F 48.9 °F 30 in SW 8.1 mph 8.1 mph 27 % 0 in
16:08 86.5 °F 48.6 °F 30 in SW 12.7 mph 12.7 mph 27 % 0 in
16:13 86.5 °F 48.6 °F 30 in West 8.1 mph 8.1 mph 27 % 0 in
16:18 87.3 °F 49.3 °F 30 in WSW 10.5 mph 10.5 mph 27 % 0 in
16:23 87.6 °F 49.5 °F 30 in South 6.2 mph 6.2 mph 27 % 0 in
16:28 87.3 °F 49.3 °F 30 in WSW 8.1 mph 8.1 mph 27 % 0 in
16:33 87.8 °F 49.6 °F 30 in SW 4.6 mph 4.6 mph 27 % 0 in
16:38 87.3 °F 49.3 °F 30 in SSW 8.1 mph 8.1 mph 27 % 0 in
16:43 87.3 °F 49.3 °F 30 in SSW 10.7 mph 10.7 mph 27 % 0 in
16:48 86.9 °F 47.8 °F 30 in South 10.4 mph 10.4 mph 26 % 0 in
16:53 87.3 °F 49.3 °F 30 in WSW 5.8 mph 5.8 mph 27 % 0 in
16:58 86.5 °F 47.7 °F 30 in SW 9.2 mph 9.2 mph 26 % 0 in
17:03 86.5 °F 47.7 °F 30 in SSW 9.2 mph 9.2 mph 26 % 0 in
17:08 86.9 °F 47.8 °F 30 in SW 9.4 mph 9.4 mph 26 % 0 in
17:13 86.5 °F 47.7 °F 30 in SSW 9.2 mph 9.2 mph 26 % 0 in
17:18 86.7 °F 47.7 °F 30 in SSE 8.1 mph 8.1 mph 26 % 0 in
17:23 87.1 °F 48 °F 30 in WSW 5.8 mph 5.8 mph 26 % 0 in
17:28 86.4 °F 47.5 °F 30 in WSW 10.4 mph 10.4 mph 26 % 0 in
17:33 85.8 °F 48 °F 30 in ESE 7.8 mph 7.8 mph 27 % 0 in
17:39 86 °F 47.1 °F 30 in SW 10.4 mph 10.4 mph 26 % 0 in
17:44 85.5 °F 46.8 °F 30 in SSW 11.5 mph 11.5 mph 26 % 0 in
17:49 85.3 °F 46.6 °F 30 in SW 8.1 mph 8.1 mph 26 % 0 in
17:54 85.1 °F 47.5 °F 30 in WSW 5.8 mph 5.8 mph 27 % 0 in
17:59 85.1 °F 47.5 °F 30 in SW 10.4 mph 10.4 mph 27 % 0 in
18:00 85.3 °F 47.5 °F 30 in SSW 6.9 mph 6.9 mph 27 % 0 in
18:05 84.9 °F 47.1 °F 30 in SE 9.2 mph 9.2 mph 27 % 0 in
18:10 84.6 °F 46.9 °F 30 in West 9.2 mph 9.2 mph 27 % 0 in
18:15 84.2 °F 46.6 °F 30 in SSW 10.4 mph 10.4 mph 27 % 0 in
18:20 84 °F 47.5 °F 30 in WSW 13.8 mph 13.8 mph 28 % 0 in
18:25 83.1 °F 46.6 °F 30 in WSW 6.9 mph 6.9 mph 28 % 0 in
18:30 83.1 °F 46.6 °F 30 in South 5.8 mph 5.8 mph 28 % 0 in
18:35 82.9 °F 46.6 °F 30 in SW 9.7 mph 9.7 mph 28 % 0 in
18:40 82.8 °F 47.3 °F 30 in SW 6.9 mph 6.9 mph 29 % 0 in
18:45 82 °F 45.7 °F 30 in WSW 9.2 mph 9.2 mph 28 % 0 in
18:50 81.3 °F 45.1 °F 30 in SW 13.8 mph 13.8 mph 28 % 0 in
18:55 80.6 °F 44.4 °F 30 in South 12.7 mph 12.7 mph 28 % 0 in
19:00 80.8 °F 45.7 °F 30 in SW 9 mph 9 mph 29 % 0 in
19:05 80.4 °F 45.1 °F 30 in SSW 12.7 mph 12.7 mph 29 % 0 in
19:10 80.1 °F 44.1 °F 30 in SSW 9.2 mph 9.2 mph 28 % 0 in
19:15 80.1 °F 45 °F 30 in WSW 12.7 mph 12.7 mph 29 % 0 in
19:20 80.1 °F 45 °F 30 in SW 8.1 mph 8.1 mph 29 % 0 in
19:25 79.7 °F 44.6 °F 30 in WSW 10.4 mph 10.4 mph 29 % 0 in
19:30 79.7 °F 44.6 °F 30 in SW 11.5 mph 11.5 mph 29 % 0 in
19:35 79.3 °F 44.2 °F 30 in SW 8.5 mph 8.5 mph 29 % 0 in
19:40 79.3 °F 44.2 °F 30 in South 9.2 mph 9.2 mph 29 % 0 in
19:45 79.2 °F 44.2 °F 30 in SW 11.5 mph 11.5 mph 29 % 0 in
19:50 79 °F 44.1 °F 30 in SW 8.1 mph 8.1 mph 29 % 0 in
19:55 79 °F 44.1 °F 30 in WSW 8.1 mph 8.1 mph 29 % 0 in
20:00 78.6 °F 43.7 °F 30 in SSW 10.4 mph 10.4 mph 29 % 0 in
20:05 78.6 °F 43.7 °F 30 in SW 8.1 mph 8.1 mph 29 % 0 in
20:10 78.4 °F 44.4 °F 30 in South 6.9 mph 6.9 mph 30 % 0 in
20:15 78.3 °F 44.2 °F 30 in SW 9.2 mph 9.2 mph 30 % 0 in
20:20 78.1 °F 44.1 °F 30 in SSW 6.9 mph 6.9 mph 30 % 0 in
20:25 77.9 °F 44.1 °F 30 in SW 5.8 mph 5.8 mph 30 % 0 in
20:30 77.5 °F 43.5 °F 30 in SSW 9.2 mph 9.2 mph 30 % 0 in
20:35 77.4 °F 43.5 °F 30 in SW 6.9 mph 6.9 mph 30 % 0 in
20:40 77.2 °F 43.3 °F 30 in SW 5.4 mph 5.4 mph 30 % 0 in
20:45 77 °F 43.2 °F 30 in SSW 6.9 mph 6.9 mph 30 % 0 in
20:50 76.6 °F 43.7 °F 30 in WSW 5.8 mph 5.8 mph 31 % 0 in
20:55 76.5 °F 43.5 °F 30 in SSW 5.9 mph 5.9 mph 31 % 0 in
21:00 76.3 °F 43.3 °F 30 in SW 5.8 mph 5.8 mph 31 % 0 in
21:05 76.1 °F 43.3 °F 30 in SSW 4.6 mph 4.6 mph 31 % 0 in
21:10 75.7 °F 43.9 °F 30 in SW 5.4 mph 5.4 mph 32 % 0 in
21:15 75.6 °F 43.5 °F 30 in WSW 8.1 mph 8.1 mph 32 % 0 in
21:20 75.4 °F 43.5 °F 30 in SW 8.1 mph 8.1 mph 32 % 0 in
21:25 75 °F 43.2 °F 30 in SSW 8.5 mph 8.5 mph 32 % 0 in
21:30 74.8 °F 43 °F 30 in SSW 5.8 mph 5.8 mph 32 % 0 in
21:35 74.7 °F 42.8 °F 30 in SW 5.8 mph 5.8 mph 32 % 0 in
21:40 74.3 °F 42.4 °F 30 in SW 4.6 mph 4.6 mph 32 % 0 in
21:45 74.1 °F 43.2 °F 30 in SW 4.6 mph 4.6 mph 33 % 0 in
21:50 73.9 °F 43 °F 30 in WSW 3.5 mph 3.5 mph 33 % 0 in
21:55 73.6 °F 42.6 °F 30 in SW 3.5 mph 3.5 mph 33 % 0 in
22:00 73.4 °F 42.4 °F 30 in SW 2.3 mph 2.3 mph 33 % 0 in
22:05 73.2 °F 43.2 °F 30 in West 3.5 mph 3.5 mph 34 % 0 in
22:10 73 °F 43.9 °F 30 in WSW 1.2 mph 1.2 mph 35 % 0 in
22:15 72.9 °F 43.5 °F 30 in NW 2.3 mph 2.3 mph 35 % 0 in
22:20 72.9 °F 43.5 °F 30 in WSW 2.3 mph 2.3 mph 35 % 0 in
22:25 72.7 °F 44.2 °F 30 in WSW 1.2 mph 1.2 mph 36 % 0 in
22:30 72.5 °F 44.1 °F 30 in WSW 2.6 mph 2.6 mph 36 % 0 in
22:35 72.3 °F 43.9 °F 30 in West 2.4 mph 2.4 mph 36 % 0 in
22:40 72.1 °F 43.7 °F 30 in West 2.3 mph 2.3 mph 36 % 0 in
22:45 72.1 °F 43.7 °F 30 in West 3.5 mph 3.5 mph 36 % 0 in
22:50 72 °F 43.5 °F 30 in West 3.5 mph 3.5 mph 36 % 0 in
22:55 71.8 °F 43.3 °F 30 in WSW 3.1 mph 3.1 mph 36 % 0 in
23:00 71.6 °F 43.9 °F 30 in WSW 2.3 mph 2.3 mph 37 % 0 in
23:05 71.6 °F 43.9 °F 30 in West 4.6 mph 4.6 mph 37 % 0 in
23:10 71.4 °F 43.9 °F 30 in WSW 2.4 mph 2.4 mph 37 % 0 in
23:15 71.2 °F 43.5 °F 30 in SW 2.9 mph 2.9 mph 37 % 0 in
23:20 71.1 °F 43.5 °F 30 in SW 2.6 mph 2.6 mph 37 % 0 in
23:25 70.7 °F 43.9 °F 30 in SW 2.3 mph 2.3 mph 38 % 0 in
23:30 70.7 °F 43.9 °F 30 in WSW 2.6 mph 2.6 mph 38 % 0 in
23:35 70.7 °F 43.9 °F 30 in SW 2.3 mph 2.3 mph 38 % 0 in
23:40 70.5 °F 43.7 °F 30 in West 2.3 mph 2.3 mph 38 % 0 in
23:45 70.5 °F 44.4 °F 30 in West 2.3 mph 2.3 mph 39 % 0 in
23:50 70.3 °F 44.2 °F 30 in West 3.5 mph 3.5 mph 39 % 0 in
23:55 70.2 °F 44.1 °F 30 in WSW 2.3 mph 2.3 mph 39 % 0 in
Meteo Sesrovires
Elogis d' Weather Underground - 3.5 mb

Guio original per  Jim McMurry - jmcmurry@mwt.net Adaptat per a la plantilla per  Wim van der Kuil - Leuven-Template.eu

Trobareu la nostra informacio del temps tambe a:

Weather Underground

AWEKAS